sensor_id;sensor_type;location;lat;lon;timestamp;P1;durP1;ratioP1;P2;durP2;ratioP2
14738;SDS011;7461;52.440;13.540;2023-06-14T00:01:16;4.88;;;4.47;;
14738;SDS011;7461;52.440;13.540;2023-06-14T00:03:45;3.33;;;3.10;;
14738;SDS011;7461;52.440;13.540;2023-06-14T00:06:13;4.40;;;4.00;;
14738;SDS011;7461;52.440;13.540;2023-06-14T00:08:40;4.50;;;4.20;;
14738;SDS011;7461;52.440;13.540;2023-06-14T00:11:07;4.00;;;3.70;;
14738;SDS011;7461;52.440;13.540;2023-06-14T00:13:34;3.80;;;3.17;;
14738;SDS011;7461;52.440;13.540;2023-06-14T00:16:03;4.53;;;4.22;;
14738;SDS011;7461;52.440;13.540;2023-06-14T00:18:30;4.30;;;4.00;;
14738;SDS011;7461;52.440;13.540;2023-06-14T00:20:57;3.58;;;3.38;;
14738;SDS011;7461;52.440;13.540;2023-06-14T00:23:25;4.57;;;4.15;;
14738;SDS011;7461;52.440;13.540;2023-06-14T00:25:52;3.95;;;3.75;;
14738;SDS011;7461;52.440;13.540;2023-06-14T00:28:19;6.50;;;3.58;;
14738;SDS011;7461;52.440;13.540;2023-06-14T00:30:46;3.95;;;3.75;;
14738;SDS011;7461;52.440;13.540;2023-06-14T00:33:14;4.72;;;4.38;;
14738;SDS011;7461;52.440;13.540;2023-06-14T00:35:41;4.18;;;3.97;;
14738;SDS011;7461;52.440;13.540;2023-06-14T00:38:08;4.15;;;3.78;;
14738;SDS011;7461;52.440;13.540;2023-06-14T00:40:35;5.80;;;5.38;;
14738;SDS011;7461;52.440;13.540;2023-06-14T00:43:02;4.43;;;4.03;;
14738;SDS011;7461;52.440;13.540;2023-06-14T00:45:29;4.88;;;4.50;;
14738;SDS011;7461;52.440;13.540;2023-06-14T00:48:00;4.93;;;4.63;;
14738;SDS011;7461;52.440;13.540;2023-06-14T00:50:30;4.20;;;3.90;;
14738;SDS011;7461;52.440;13.540;2023-06-14T00:52:58;5.50;;;5.10;;
14738;SDS011;7461;52.440;13.540;2023-06-14T00:55:26;5.78;;;5.25;;
14738;SDS011;7461;52.440;13.540;2023-06-14T00:57:53;5.85;;;5.20;;
14738;SDS011;7461;52.440;13.540;2023-06-14T01:00:20;6.05;;;3.80;;
14738;SDS011;7461;52.440;13.540;2023-06-14T01:02:47;5.53;;;5.03;;
14738;SDS011;7461;52.440;13.540;2023-06-14T01:05:15;5.55;;;5.25;;
14738;SDS011;7461;52.440;13.540;2023-06-14T01:07:49;5.53;;;5.05;;
14738;SDS011;7461;52.440;13.540;2023-06-14T01:10:31;5.45;;;5.10;;
14738;SDS011;7461;52.440;13.540;2023-06-14T01:13:07;6.00;;;5.50;;
14738;SDS011;7461;52.440;13.540;2023-06-14T01:15:39;4.82;;;4.53;;
14738;SDS011;7461;52.440;13.540;2023-06-14T01:18:09;4.53;;;4.22;;
14738;SDS011;7461;52.440;13.540;2023-06-14T01:20:42;5.53;;;5.22;;
14738;SDS011;7461;52.440;13.540;2023-06-14T01:23:13;4.78;;;4.47;;
14738;SDS011;7461;52.440;13.540;2023-06-14T01:25:43;4.63;;;4.43;;
14738;SDS011;7461;52.440;13.540;2023-06-14T01:28:17;5.03;;;4.65;;
14738;SDS011;7461;52.440;13.540;2023-06-14T01:30:46;6.25;;;5.88;;
14738;SDS011;7461;52.440;13.540;2023-06-14T01:33:17;5.63;;;5.30;;
14738;SDS011;7461;52.440;13.540;2023-06-14T01:35:46;5.85;;;5.32;;
14738;SDS011;7461;52.440;13.540;2023-06-14T01:38:17;7.20;;;6.55;;
14738;SDS011;7461;52.440;13.540;2023-06-14T01:40:47;5.47;;;5.03;;
14738;SDS011;7461;52.440;13.540;2023-06-14T01:43:16;6.15;;;5.75;;
14738;SDS011;7461;52.440;13.540;2023-06-14T01:45:44;6.45;;;5.93;;
14738;SDS011;7461;52.440;13.540;2023-06-14T01:48:14;6.07;;;5.68;;
14738;SDS011;7461;52.440;13.540;2023-06-14T01:50:41;5.85;;;5.43;;
14738;SDS011;7461;52.440;13.540;2023-06-14T01:53:08;9.18;;;6.63;;
14738;SDS011;7461;52.440;13.540;2023-06-14T01:55:41;6.00;;;5.60;;
14738;SDS011;7461;52.440;13.540;2023-06-14T01:58:09;5.85;;;5.55;;
14738;SDS011;7461;52.440;13.540;2023-06-14T02:00:37;5.63;;;5.32;;
14738;SDS011;7461;52.440;13.540;2023-06-14T02:03:04;5.82;;;5.47;;
14738;SDS011;7461;52.440;13.540;2023-06-14T02:05:31;7.57;;;6.35;;
14738;SDS011;7461;52.440;13.540;2023-06-14T02:07:59;7.82;;;6.80;;
14738;SDS011;7461;52.440;13.540;2023-06-14T02:10:27;6.38;;;5.75;;
14738;SDS011;7461;52.440;13.540;2023-06-14T02:12:56;5.75;;;5.35;;
14738;SDS011;7461;52.440;13.540;2023-06-14T02:15:23;5.65;;;5.35;;
14738;SDS011;7461;52.440;13.540;2023-06-14T02:17:59;5.45;;;5.15;;
14738;SDS011;7461;52.440;13.540;2023-06-14T02:20:27;6.28;;;5.68;;
14738;SDS011;7461;52.440;13.540;2023-06-14T02:22:54;6.72;;;6.32;;
14738;SDS011;7461;52.440;13.540;2023-06-14T02:25:21;6.45;;;6.00;;
14738;SDS011;7461;52.440;13.540;2023-06-14T02:27:48;7.38;;;6.78;;
14738;SDS011;7461;52.440;13.540;2023-06-14T02:30:17;6.07;;;5.68;;
14738;SDS011;7461;52.440;13.540;2023-06-14T02:32:44;8.57;;;7.10;;
14738;SDS011;7461;52.440;13.540;2023-06-14T02:35:15;6.75;;;6.25;;
14738;SDS011;7461;52.440;13.540;2023-06-14T02:37:43;7.65;;;7.15;;
14738;SDS011;7461;52.440;13.540;2023-06-14T02:40:11;7.20;;;6.72;;
14738;SDS011;7461;52.440;13.540;2023-06-14T02:42:38;7.63;;;6.95;;
14738;SDS011;7461;52.440;13.540;2023-06-14T02:45:08;7.55;;;6.07;;
14738;SDS011;7461;52.440;13.540;2023-06-14T02:47:37;8.25;;;7.55;;
14738;SDS011;7461;52.440;13.540;2023-06-14T02:50:05;7.20;;;6.65;;
14738;SDS011;7461;52.440;13.540;2023-06-14T02:52:34;8.40;;;7.70;;
14738;SDS011;7461;52.440;13.540;2023-06-14T02:55:01;7.22;;;6.57;;
14738;SDS011;7461;52.440;13.540;2023-06-14T02:57:30;13.43;;;6.80;;
14738;SDS011;7461;52.440;13.540;2023-06-14T02:59:56;7.50;;;7.00;;
14738;SDS011;7461;52.440;13.540;2023-06-14T03:02:24;6.82;;;6.38;;
14738;SDS011;7461;52.440;13.540;2023-06-14T03:04:53;7.63;;;7.00;;
14738;SDS011;7461;52.440;13.540;2023-06-14T03:07:21;7.75;;;7.30;;
14738;SDS011;7461;52.440;13.540;2023-06-14T03:09:49;7.25;;;6.82;;
14738;SDS011;7461;52.440;13.540;2023-06-14T03:12:17;8.68;;;7.78;;
14738;SDS011;7461;52.440;13.540;2023-06-14T03:14:52;8.18;;;7.57;;
14738;SDS011;7461;52.440;13.540;2023-06-14T03:17:27;7.53;;;7.03;;
14738;SDS011;7461;52.440;13.540;2023-06-14T03:20:01;8.48;;;7.97;;
14738;SDS011;7461;52.440;13.540;2023-06-14T03:22:40;7.40;;;6.80;;
14738;SDS011;7461;52.440;13.540;2023-06-14T03:25:44;8.45;;;7.68;;
14738;SDS011;7461;52.440;13.540;2023-06-14T03:28:11;7.95;;;7.45;;
14738;SDS011;7461;52.440;13.540;2023-06-14T03:30:38;8.13;;;7.53;;
14738;SDS011;7461;52.440;13.540;2023-06-14T03:33:07;12.38;;;8.38;;
14738;SDS011;7461;52.440;13.540;2023-06-14T03:35:36;8.95;;;8.40;;
14738;SDS011;7461;52.440;13.540;2023-06-14T03:38:03;7.95;;;7.45;;
14738;SDS011;7461;52.440;13.540;2023-06-14T03:40:30;8.82;;;7.95;;
14738;SDS011;7461;52.440;13.540;2023-06-14T03:42:57;8.90;;;8.23;;
14738;SDS011;7461;52.440;13.540;2023-06-14T03:45:25;8.32;;;7.78;;
14738;SDS011;7461;52.440;13.540;2023-06-14T03:47:52;8.52;;;7.93;;
14738;SDS011;7461;52.440;13.540;2023-06-14T03:50:19;8.35;;;7.65;;
14738;SDS011;7461;52.440;13.540;2023-06-14T03:52:48;9.23;;;8.65;;
14738;SDS011;7461;52.440;13.540;2023-06-14T03:55:15;9.23;;;8.52;;
14738;SDS011;7461;52.440;13.540;2023-06-14T03:57:42;9.50;;;8.75;;
14738;SDS011;7461;52.440;13.540;2023-06-14T04:00:10;8.32;;;7.72;;
14738;SDS011;7461;52.440;13.540;2023-06-14T04:02:38;9.48;;;7.97;;
14738;SDS011;7461;52.440;13.540;2023-06-14T04:05:05;8.63;;;7.93;;
14738;SDS011;7461;52.440;13.540;2023-06-14T04:07:34;8.30;;;7.82;;
14738;SDS011;7461;52.440;13.540;2023-06-14T04:10:07;10.52;;;9.75;;
14738;SDS011;7461;52.440;13.540;2023-06-14T04:12:34;10.15;;;9.32;;
14738;SDS011;7461;52.440;13.540;2023-06-14T04:15:02;9.98;;;9.35;;
14738;SDS011;7461;52.440;13.540;2023-06-14T04:17:31;11.90;;;9.02;;
14738;SDS011;7461;52.440;13.540;2023-06-14T04:19:59;10.18;;;9.55;;
14738;SDS011;7461;52.440;13.540;2023-06-14T04:22:27;9.40;;;8.82;;
14738;SDS011;7461;52.440;13.540;2023-06-14T04:24:55;10.25;;;9.63;;
14738;SDS011;7461;52.440;13.540;2023-06-14T04:27:24;10.77;;;9.18;;
14738;SDS011;7461;52.440;13.540;2023-06-14T04:29:52;10.82;;;9.88;;
14738;SDS011;7461;52.440;13.540;2023-06-14T04:32:23;11.55;;;10.80;;
14738;SDS011;7461;52.440;13.540;2023-06-14T04:34:52;10.77;;;10.18;;
14738;SDS011;7461;52.440;13.540;2023-06-14T04:37:19;10.55;;;9.65;;
14738;SDS011;7461;52.440;13.540;2023-06-14T04:39:47;12.88;;;9.52;;
14738;SDS011;7461;52.440;13.540;2023-06-14T04:42:15;10.77;;;10.07;;
14738;SDS011;7461;52.440;13.540;2023-06-14T04:44:47;9.60;;;8.90;;
14738;SDS011;7461;52.440;13.540;2023-06-14T04:47:14;10.00;;;9.40;;
14738;SDS011;7461;52.440;13.540;2023-06-14T04:49:42;11.18;;;10.50;;
14738;SDS011;7461;52.440;13.540;2023-06-14T04:52:09;10.13;;;9.38;;
14738;SDS011;7461;52.440;13.540;2023-06-14T04:54:38;9.82;;;9.23;;
14738;SDS011;7461;52.440;13.540;2023-06-14T04:57:07;10.57;;;9.85;;
14738;SDS011;7461;52.440;13.540;2023-06-14T04:59:39;11.35;;;10.25;;
14738;SDS011;7461;52.440;13.540;2023-06-14T05:02:07;10.57;;;9.73;;
14738;SDS011;7461;52.440;13.540;2023-06-14T05:04:51;10.80;;;9.93;;
14738;SDS011;7461;52.440;13.540;2023-06-14T05:07:28;9.48;;;8.68;;
14738;SDS011;7461;52.440;13.540;2023-06-14T05:09:55;8.65;;;8.07;;
14738;SDS011;7461;52.440;13.540;2023-06-14T05:12:30;9.07;;;8.48;;
14738;SDS011;7461;52.440;13.540;2023-06-14T05:14:57;10.18;;;9.48;;
14738;SDS011;7461;52.440;13.540;2023-06-14T05:17:26;9.80;;;9.20;;
14738;SDS011;7461;52.440;13.540;2023-06-14T05:19:53;9.55;;;8.85;;
14738;SDS011;7461;52.440;13.540;2023-06-14T05:22:21;10.10;;;9.23;;
14738;SDS011;7461;52.440;13.540;2023-06-14T05:24:48;9.70;;;8.98;;
14738;SDS011;7461;52.440;13.540;2023-06-14T05:27:16;10.02;;;9.35;;
14738;SDS011;7461;52.440;13.540;2023-06-14T05:29:43;10.48;;;9.73;;
14738;SDS011;7461;52.440;13.540;2023-06-14T05:32:09;9.50;;;8.90;;
14738;SDS011;7461;52.440;13.540;2023-06-14T05:34:38;10.00;;;9.20;;
14738;SDS011;7461;52.440;13.540;2023-06-14T05:37:05;10.10;;;9.50;;
14738;SDS011;7461;52.440;13.540;2023-06-14T05:39:32;10.73;;;10.15;;
14738;SDS011;7461;52.440;13.540;2023-06-14T05:41:59;11.23;;;10.40;;
14738;SDS011;7461;52.440;13.540;2023-06-14T05:44:26;11.20;;;10.40;;
14738;SDS011;7461;52.440;13.540;2023-06-14T05:46:53;10.88;;;10.15;;
14738;SDS011;7461;52.440;13.540;2023-06-14T05:49:20;10.23;;;9.45;;
14738;SDS011;7461;52.440;13.540;2023-06-14T05:51:49;10.55;;;9.82;;
14738;SDS011;7461;52.440;13.540;2023-06-14T05:54:16;9.52;;;8.82;;
14738;SDS011;7461;52.440;13.540;2023-06-14T05:56:43;9.82;;;9.23;;
14738;SDS011;7461;52.440;13.540;2023-06-14T05:59:10;9.73;;;8.93;;
14738;SDS011;7461;52.440;13.540;2023-06-14T06:01:37;8.63;;;8.02;;
14738;SDS011;7461;52.440;13.540;2023-06-14T06:04:05;11.32;;;10.55;;
14738;SDS011;7461;52.440;13.540;2023-06-14T06:06:32;9.10;;;8.23;;
14738;SDS011;7461;52.440;13.540;2023-06-14T06:09:02;9.73;;;8.93;;
14738;SDS011;7461;52.440;13.540;2023-06-14T06:11:30;10.32;;;9.55;;
14738;SDS011;7461;52.440;13.540;2023-06-14T06:13:57;10.82;;;9.88;;
14738;SDS011;7461;52.440;13.540;2023-06-14T06:16:24;10.52;;;9.93;;
14738;SDS011;7461;52.440;13.540;2023-06-14T06:18:51;10.32;;;9.52;;
14738;SDS011;7461;52.440;13.540;2023-06-14T06:21:18;9.20;;;8.40;;
14738;SDS011;7461;52.440;13.540;2023-06-14T06:23:45;10.57;;;9.77;;
14738;SDS011;7461;52.440;13.540;2023-06-14T06:26:14;10.73;;;9.85;;
14738;SDS011;7461;52.440;13.540;2023-06-14T06:28:41;9.93;;;9.13;;
14738;SDS011;7461;52.440;13.540;2023-06-14T06:31:08;10.40;;;9.63;;
14738;SDS011;7461;52.440;13.540;2023-06-14T06:33:36;10.40;;;9.43;;
14738;SDS011;7461;52.440;13.540;2023-06-14T06:36:04;9.68;;;8.98;;
14738;SDS011;7461;52.440;13.540;2023-06-14T06:38:32;10.02;;;9.30;;
14738;SDS011;7461;52.440;13.540;2023-06-14T06:41:00;10.23;;;9.43;;
14738;SDS011;7461;52.440;13.540;2023-06-14T06:43:28;10.55;;;9.55;;
14738;SDS011;7461;52.440;13.540;2023-06-14T06:45:55;11.45;;;10.07;;
14738;SDS011;7461;52.440;13.540;2023-06-14T06:48:22;9.45;;;8.77;;
14738;SDS011;7461;52.440;13.540;2023-06-14T06:50:49;9.68;;;8.88;;
14738;SDS011;7461;52.440;13.540;2023-06-14T06:53:17;11.13;;;10.20;;
14738;SDS011;7461;52.440;13.540;2023-06-14T06:55:44;10.68;;;9.73;;
14738;SDS011;7461;52.440;13.540;2023-06-14T06:58:13;9.98;;;9.10;;
14738;SDS011;7461;52.440;13.540;2023-06-14T07:00:43;9.07;;;8.27;;
14738;SDS011;7461;52.440;13.540;2023-06-14T07:03:11;9.90;;;9.20;;
14738;SDS011;7461;52.440;13.540;2023-06-14T07:05:38;9.13;;;8.50;;
14738;SDS011;7461;52.440;13.540;2023-06-14T07:08:05;10.30;;;9.60;;
14738;SDS011;7461;52.440;13.540;2023-06-14T07:10:33;10.60;;;9.60;;
14738;SDS011;7461;52.440;13.540;2023-06-14T07:13:00;9.98;;;9.23;;
14738;SDS011;7461;52.440;13.540;2023-06-14T07:15:27;9.85;;;9.20;;
14738;SDS011;7461;52.440;13.540;2023-06-14T07:17:55;10.05;;;9.07;;
14738;SDS011;7461;52.440;13.540;2023-06-14T07:20:24;10.68;;;9.68;;
14738;SDS011;7461;52.440;13.540;2023-06-14T07:22:51;10.20;;;9.55;;
14738;SDS011;7461;52.440;13.540;2023-06-14T07:25:19;10.10;;;9.27;;
14738;SDS011;7461;52.440;13.540;2023-06-14T07:27:47;10.63;;;9.75;;
14738;SDS011;7461;52.440;13.540;2023-06-14T07:30:14;8.95;;;8.23;;
14738;SDS011;7461;52.440;13.540;2023-06-14T07:32:41;10.13;;;9.43;;
14738;SDS011;7461;52.440;13.540;2023-06-14T07:35:10;8.43;;;7.65;;
14738;SDS011;7461;52.440;13.540;2023-06-14T07:37:38;8.75;;;8.05;;
14738;SDS011;7461;52.440;13.540;2023-06-14T07:40:05;10.10;;;9.48;;
14738;SDS011;7461;52.440;13.540;2023-06-14T07:42:36;8.60;;;7.90;;
14738;SDS011;7461;52.440;13.540;2023-06-14T07:45:04;9.07;;;8.45;;
14738;SDS011;7461;52.440;13.540;2023-06-14T07:47:32;8.52;;;7.93;;
14738;SDS011;7461;52.440;13.540;2023-06-14T07:49:59;9.02;;;8.15;;
14738;SDS011;7461;52.440;13.540;2023-06-14T07:52:27;8.27;;;7.45;;
14738;SDS011;7461;52.440;13.540;2023-06-14T07:54:54;7.60;;;7.13;;
14738;SDS011;7461;52.440;13.540;2023-06-14T07:57:21;8.30;;;7.80;;
14738;SDS011;7461;52.440;13.540;2023-06-14T07:59:49;7.75;;;7.30;;
14738;SDS011;7461;52.440;13.540;2023-06-14T08:02:18;7.93;;;7.30;;
14738;SDS011;7461;52.440;13.540;2023-06-14T08:04:45;9.30;;;8.50;;
14738;SDS011;7461;52.440;13.540;2023-06-14T08:07:13;8.95;;;8.18;;
14738;SDS011;7461;52.440;13.540;2023-06-14T08:09:42;7.68;;;7.18;;
14738;SDS011;7461;52.440;13.540;2023-06-14T08:12:09;7.93;;;7.32;;
14738;SDS011;7461;52.440;13.540;2023-06-14T08:14:36;8.10;;;7.65;;
14738;SDS011;7461;52.440;13.540;2023-06-14T08:17:05;8.75;;;8.10;;
14738;SDS011;7461;52.440;13.540;2023-06-14T08:19:32;7.70;;;7.18;;
14738;SDS011;7461;52.440;13.540;2023-06-14T08:21:59;7.32;;;6.82;;
14738;SDS011;7461;52.440;13.540;2023-06-14T08:24:26;7.40;;;6.93;;
14738;SDS011;7461;52.440;13.540;2023-06-14T08:26:55;7.30;;;6.88;;
14738;SDS011;7461;52.440;13.540;2023-06-14T08:29:26;7.65;;;6.97;;
14738;SDS011;7461;52.440;13.540;2023-06-14T08:31:54;7.40;;;6.80;;
14738;SDS011;7461;52.440;13.540;2023-06-14T08:34:21;8.95;;;8.20;;
14738;SDS011;7461;52.440;13.540;2023-06-14T08:36:49;8.27;;;7.53;;
14738;SDS011;7461;52.440;13.540;2023-06-14T08:39:16;6.32;;;6.00;;
14738;SDS011;7461;52.440;13.540;2023-06-14T08:41:44;7.00;;;6.32;;
14738;SDS011;7461;52.440;13.540;2023-06-14T08:44:14;8.05;;;6.80;;
14738;SDS011;7461;52.440;13.540;2023-06-14T08:46:43;6.20;;;5.70;;
14738;SDS011;7461;52.440;13.540;2023-06-14T08:49:11;6.97;;;6.47;;
14738;SDS011;7461;52.440;13.540;2023-06-14T08:51:39;6.78;;;6.28;;
14738;SDS011;7461;52.440;13.540;2023-06-14T08:54:06;5.68;;;5.18;;
14738;SDS011;7461;52.440;13.540;2023-06-14T08:56:34;6.38;;;5.47;;
14738;SDS011;7461;52.440;13.540;2023-06-14T08:59:06;4.90;;;4.53;;
14738;SDS011;7461;52.440;13.540;2023-06-14T09:01:36;5.15;;;4.78;;
14738;SDS011;7461;52.440;13.540;2023-06-14T09:04:04;8.73;;;5.35;;
14738;SDS011;7461;52.440;13.540;2023-06-14T09:06:32;5.22;;;4.63;;
14738;SDS011;7461;52.440;13.540;2023-06-14T09:08:59;6.35;;;5.85;;
14738;SDS011;7461;52.440;13.540;2023-06-14T09:11:27;5.38;;;5.07;;
14738;SDS011;7461;52.440;13.540;2023-06-14T09:13:54;5.80;;;5.47;;
14738;SDS011;7461;52.440;13.540;2023-06-14T09:16:21;5.60;;;5.10;;
14738;SDS011;7461;52.440;13.540;2023-06-14T09:18:50;5.78;;;5.47;;
14738;SDS011;7461;52.440;13.540;2023-06-14T09:21:17;5.03;;;4.72;;
14738;SDS011;7461;52.440;13.540;2023-06-14T09:23:44;6.13;;;5.68;;
14738;SDS011;7461;52.440;13.540;2023-06-14T09:26:12;5.72;;;5.13;;
14738;SDS011;7461;52.440;13.540;2023-06-14T09:28:41;5.30;;;4.85;;
14738;SDS011;7461;52.440;13.540;2023-06-14T09:31:09;6.50;;;6.10;;
14738;SDS011;7461;52.440;13.540;2023-06-14T09:33:37;6.22;;;5.82;;
14738;SDS011;7461;52.440;13.540;2023-06-14T09:36:06;5.85;;;5.43;;
14738;SDS011;7461;52.440;13.540;2023-06-14T09:38:37;5.18;;;4.88;;
14738;SDS011;7461;52.440;13.540;2023-06-14T09:41:07;7.57;;;7.00;;
14738;SDS011;7461;52.440;13.540;2023-06-14T09:43:34;6.95;;;6.20;;
14738;SDS011;7461;52.440;13.540;2023-06-14T09:46:02;6.65;;;6.13;;
14738;SDS011;7461;52.440;13.540;2023-06-14T09:48:31;5.55;;;5.25;;
14738;SDS011;7461;52.440;13.540;2023-06-14T09:50:58;5.88;;;5.45;;
14738;SDS011;7461;52.440;13.540;2023-06-14T09:53:31;5.82;;;5.25;;
14738;SDS011;7461;52.440;13.540;2023-06-14T09:56:02;5.68;;;5.13;;
14738;SDS011;7461;52.440;13.540;2023-06-14T09:58:31;7.32;;;5.88;;
14738;SDS011;7461;52.440;13.540;2023-06-14T10:01:02;6.68;;;6.10;;
14738;SDS011;7461;52.440;13.540;2023-06-14T10:03:33;5.85;;;5.47;;
14738;SDS011;7461;52.440;13.540;2023-06-14T10:06:02;5.47;;;5.18;;
14738;SDS011;7461;52.440;13.540;2023-06-14T10:08:36;5.78;;;5.10;;
14738;SDS011;7461;52.440;13.540;2023-06-14T10:11:05;11.52;;;5.10;;
14738;SDS011;7461;52.440;13.540;2023-06-14T10:13:32;5.32;;;5.03;;
14738;SDS011;7461;52.440;13.540;2023-06-14T10:16:04;5.35;;;4.85;;
14738;SDS011;7461;52.440;13.540;2023-06-14T10:18:39;6.03;;;5.57;;
14738;SDS011;7461;52.440;13.540;2023-06-14T10:21:13;5.35;;;4.95;;
14738;SDS011;7461;52.440;13.540;2023-06-14T10:23:48;6.40;;;5.60;;
14738;SDS011;7461;52.440;13.540;2023-06-14T10:26:18;4.90;;;4.60;;
14738;SDS011;7461;52.440;13.540;2023-06-14T10:28:54;6.00;;;5.70;;
14738;SDS011;7461;52.440;13.540;2023-06-14T10:31:26;8.50;;;5.03;;
14738;SDS011;7461;52.440;13.540;2023-06-14T10:34:06;6.28;;;5.80;;
14738;SDS011;7461;52.440;13.540;2023-06-14T10:36:33;5.32;;;5.03;;
14738;SDS011;7461;52.440;13.540;2023-06-14T10:39:03;6.22;;;5.80;;
14738;SDS011;7461;52.440;13.540;2023-06-14T10:41:34;6.18;;;5.82;;
14738;SDS011;7461;52.440;13.540;2023-06-14T10:47:08;6.03;;;5.60;;
14738;SDS011;7461;52.440;13.540;2023-06-14T10:49:38;5.47;;;5.07;;
14738;SDS011;7461;52.440;13.540;2023-06-14T10:52:10;5.43;;;5.13;;
14738;SDS011;7461;52.440;13.540;2023-06-14T10:54:57;6.82;;;6.10;;
14738;SDS011;7461;52.440;13.540;2023-06-14T10:57:34;7.45;;;6.78;;
14738;SDS011;7461;52.440;13.540;2023-06-14T11:00:02;6.30;;;5.80;;
14738;SDS011;7461;52.440;13.540;2023-06-14T11:02:46;5.60;;;5.20;;
14738;SDS011;7461;52.440;13.540;2023-06-14T11:05:21;6.25;;;5.78;;
14738;SDS011;7461;52.440;13.540;2023-06-14T11:07:55;7.40;;;6.68;;
14738;SDS011;7461;52.440;13.540;2023-06-14T11:10:38;6.15;;;5.75;;
14738;SDS011;7461;52.440;13.540;2023-06-14T11:13:06;5.63;;;5.22;;
14738;SDS011;7461;52.440;13.540;2023-06-14T11:15:34;5.95;;;5.55;;
14738;SDS011;7461;52.440;13.540;2023-06-14T11:18:02;6.68;;;5.53;;
14738;SDS011;7461;52.440;13.540;2023-06-14T11:20:31;5.78;;;5.38;;
14738;SDS011;7461;52.440;13.540;2023-06-14T11:22:58;7.68;;;6.97;;
14738;SDS011;7461;52.440;13.540;2023-06-14T11:25:26;6.32;;;5.82;;
14738;SDS011;7461;52.440;13.540;2023-06-14T11:27:55;5.90;;;5.57;;
14738;SDS011;7461;52.440;13.540;2023-06-14T11:30:23;6.30;;;5.80;;
14738;SDS011;7461;52.440;13.540;2023-06-14T11:32:51;5.95;;;5.57;;
14738;SDS011;7461;52.440;13.540;2023-06-14T11:35:20;6.13;;;4.93;;
14738;SDS011;7461;52.440;13.540;2023-06-14T11:37:49;6.43;;;5.18;;
14738;SDS011;7461;52.440;13.540;2023-06-14T11:40:18;6.40;;;5.80;;
14738;SDS011;7461;52.440;13.540;2023-06-14T11:42:46;5.43;;;5.13;;
14738;SDS011;7461;52.440;13.540;2023-06-14T11:45:14;7.10;;;6.25;;
14738;SDS011;7461;52.440;13.540;2023-06-14T11:47:41;6.78;;;5.50;;
14738;SDS011;7461;52.440;13.540;2023-06-14T11:50:08;5.53;;;5.13;;
14738;SDS011;7461;52.440;13.540;2023-06-14T11:52:36;6.15;;;5.70;;
14738;SDS011;7461;52.440;13.540;2023-06-14T11:55:03;8.18;;;5.75;;
14738;SDS011;7461;52.440;13.540;2023-06-14T11:57:33;6.15;;;5.53;;
14738;SDS011;7461;52.440;13.540;2023-06-14T12:00:04;4.88;;;4.50;;
14738;SDS011;7461;52.440;13.540;2023-06-14T12:02:38;5.50;;;4.93;;
14738;SDS011;7461;52.440;13.540;2023-06-14T12:05:06;4.80;;;4.50;;
14738;SDS011;7461;52.440;13.540;2023-06-14T12:07:35;5.72;;;5.35;;
14738;SDS011;7461;52.440;13.540;2023-06-14T12:10:10;5.75;;;5.32;;
14738;SDS011;7461;52.440;13.540;2023-06-14T12:12:38;5.50;;;5.07;;
14738;SDS011;7461;52.440;13.540;2023-06-14T12:15:07;4.90;;;4.60;;
14738;SDS011;7461;52.440;13.540;2023-06-14T12:17:37;7.85;;;5.72;;
14738;SDS011;7461;52.440;13.540;2023-06-14T12:20:09;5.40;;;5.00;;
14738;SDS011;7461;52.440;13.540;2023-06-14T12:22:39;6.63;;;5.97;;
14738;SDS011;7461;52.440;13.540;2023-06-14T12:25:22;6.43;;;4.97;;
14738;SDS011;7461;52.440;13.540;2023-06-14T12:27:52;5.50;;;5.07;;
14738;SDS011;7461;52.440;13.540;2023-06-14T12:30:19;5.88;;;5.38;;
14738;SDS011;7461;52.440;13.540;2023-06-14T12:32:48;4.72;;;4.43;;
14738;SDS011;7461;52.440;13.540;2023-06-14T12:35:16;6.05;;;4.75;;
14738;SDS011;7461;52.440;13.540;2023-06-14T12:37:52;5.95;;;5.20;;
14738;SDS011;7461;52.440;13.540;2023-06-14T12:40:25;8.13;;;5.40;;
14738;SDS011;7461;52.440;13.540;2023-06-14T12:42:51;7.50;;;4.60;;
14738;SDS011;7461;52.440;13.540;2023-06-14T12:45:18;6.30;;;5.90;;
14738;SDS011;7461;52.440;13.540;2023-06-14T12:47:45;5.90;;;5.18;;
14738;SDS011;7461;52.440;13.540;2023-06-14T12:50:14;5.50;;;5.10;;
14738;SDS011;7461;52.440;13.540;2023-06-14T12:52:41;4.95;;;4.70;;
14738;SDS011;7461;52.440;13.540;2023-06-14T12:55:08;5.40;;;4.70;;
14738;SDS011;7461;52.440;13.540;2023-06-14T12:57:35;7.43;;;5.13;;
14738;SDS011;7461;52.440;13.540;2023-06-14T13:00:03;5.65;;;5.25;;
14738;SDS011;7461;52.440;13.540;2023-06-14T13:02:32;5.75;;;5.30;;
14738;SDS011;7461;52.440;13.540;2023-06-14T13:05:08;6.28;;;5.72;;
14738;SDS011;7461;52.440;13.540;2023-06-14T13:08:10;5.80;;;5.40;;
14738;SDS011;7461;52.440;13.540;2023-06-14T13:10:37;5.57;;;5.05;;
14738;SDS011;7461;52.440;13.540;2023-06-14T13:13:07;5.28;;;4.78;;
14738;SDS011;7461;52.440;13.540;2023-06-14T13:15:37;6.15;;;5.45;;
14738;SDS011;7461;52.440;13.540;2023-06-14T13:18:05;7.38;;;6.18;;
14738;SDS011;7461;52.440;13.540;2023-06-14T13:20:51;6.82;;;5.57;;
14738;SDS011;7461;52.440;13.540;2023-06-14T13:24:17;8.35;;;5.10;;
14738;SDS011;7461;52.440;13.540;2023-06-14T13:26:45;6.82;;;6.15;;
14738;SDS011;7461;52.440;13.540;2023-06-14T13:29:12;6.93;;;6.03;;
14738;SDS011;7461;52.440;13.540;2023-06-14T13:31:40;4.90;;;4.60;;
14738;SDS011;7461;52.440;13.540;2023-06-14T13:34:22;5.88;;;4.95;;
14738;SDS011;7461;52.440;13.540;2023-06-14T13:37:20;9.18;;;5.70;;
14738;SDS011;7461;52.440;13.540;2023-06-14T13:39:59;5.97;;;5.47;;
14738;SDS011;7461;52.440;13.540;2023-06-14T13:42:26;5.88;;;5.35;;
14738;SDS011;7461;52.440;13.540;2023-06-14T13:44:56;6.05;;;5.55;;
14738;SDS011;7461;52.440;13.540;2023-06-14T13:47:23;6.07;;;5.78;;
14738;SDS011;7461;52.440;13.540;2023-06-14T13:49:50;5.55;;;5.15;;
14738;SDS011;7461;52.440;13.540;2023-06-14T13:52:19;6.20;;;5.35;;
14738;SDS011;7461;52.440;13.540;2023-06-14T13:54:45;11.90;;;5.28;;
14738;SDS011;7461;52.440;13.540;2023-06-14T13:57:13;5.65;;;5.18;;
14738;SDS011;7461;52.440;13.540;2023-06-14T13:59:40;4.68;;;4.43;;
14738;SDS011;7461;52.440;13.540;2023-06-14T14:02:09;6.68;;;6.28;;
14738;SDS011;7461;52.440;13.540;2023-06-14T14:04:36;5.38;;;4.93;;
14738;SDS011;7461;52.440;13.540;2023-06-14T14:07:04;5.55;;;5.13;;
14738;SDS011;7461;52.440;13.540;2023-06-14T14:09:33;6.13;;;5.63;;
14738;SDS011;7461;52.440;13.540;2023-06-14T14:12:02;4.88;;;4.45;;
14738;SDS011;7461;52.440;13.540;2023-06-14T14:14:30;5.68;;;5.18;;
14738;SDS011;7461;52.440;13.540;2023-06-14T14:16:58;5.82;;;5.43;;
14738;SDS011;7461;52.440;13.540;2023-06-14T14:19:25;5.85;;;5.28;;
14738;SDS011;7461;52.440;13.540;2023-06-14T14:21:52;4.50;;;4.10;;
14738;SDS011;7461;52.440;13.540;2023-06-14T14:24:19;5.95;;;5.43;;
14738;SDS011;7461;52.440;13.540;2023-06-14T14:26:49;5.13;;;4.82;;
14738;SDS011;7461;52.440;13.540;2023-06-14T14:29:18;6.15;;;4.90;;
14738;SDS011;7461;52.440;13.540;2023-06-14T14:31:46;6.97;;;5.93;;
14738;SDS011;7461;52.440;13.540;2023-06-14T14:34:18;5.55;;;5.10;;
14738;SDS011;7461;52.440;13.540;2023-06-14T14:40:48;6.47;;;5.72;;
14738;SDS011;7461;52.440;13.540;2023-06-14T14:46:42;5.30;;;4.80;;
14738;SDS011;7461;52.440;13.540;2023-06-14T14:49:09;5.97;;;5.15;;
14738;SDS011;7461;52.440;13.540;2023-06-14T14:51:36;5.70;;;4.60;;
14738;SDS011;7461;52.440;13.540;2023-06-14T14:54:05;6.35;;;4.70;;
14738;SDS011;7461;52.440;13.540;2023-06-14T14:56:32;5.10;;;4.65;;
14738;SDS011;7461;52.440;13.540;2023-06-14T14:59:00;5.35;;;4.90;;
14738;SDS011;7461;52.440;13.540;2023-06-14T15:01:28;6.43;;;5.93;;
14738;SDS011;7461;52.440;13.540;2023-06-14T15:03:56;8.63;;;7.82;;
14738;SDS011;7461;52.440;13.540;2023-06-14T15:06:23;6.47;;;5.88;;
14738;SDS011;7461;52.440;13.540;2023-06-14T15:08:50;9.50;;;8.88;;